Main page
METAR-TAF:

METAR-TAF

Airports :

Kärdla Airport

Kärdla, Estonia

latitude: 58-59N, longitude: 022-49E, elevation: 5 m

Current weather observation

The report was made 49 minutes ago, at 10:50 UTC
Wind 6 kt from the Northwest, varying between West and North
Temperature 3°C
Humidity 65%
Pressure 1013 hPa
Visibility 10 km or more
no clouds below 1500 m and no cumulonimbus

METAR: EEKA 201050Z 32006KT 260V350 CAVOK 03/M03 Q1013

Time: 13:39 (11:39 UTC)

Forecast

The report was made 7 hours and 39 minutes ago, at 04:00 UTC
Forecast valid from 20 at 05 UTC to 20 at 11 UTC
Wind 8 kt from the West/Northwest
Visibility 10 km or more
Broken clouds at a height of 1500 ft
Temporary
from 20 at 05 UTC to 20 at 07 UTC
Overcast at a height of 1000 ft

TAF: EEKA 200400Z 2005/2011 30008KT 9999 BKN015 TEMPO 2005/2007 OVC010

Weather observations and forecasts of more than 4000 airports (METAR and TAF reports).

The available stations are represented by yellow and red dots on the map.

Hover mouse over dot to see the name of the station.

Then click to see weather observations and forecasts.

To change the map : click on the green buttons with a black cross to zoom in, on the green button with a dash to zoom out, or on the green arrows for adjacent maps.


METAR-TAF: